Time;durP1;ratioP1;P1;durP2;ratioP2;P2;SDS_P1;SDS_P2;PMS_P1;PMS_P2;Temp;Humidity;BMP_temperature;BMP_pressure;BME280_temperature;BME280_humidity;BME280_pressure;Samples;Min_cycle;Max_cycle;Signal;HPM_P1;HPM_P2
2022/09/24 00:01:25;;;;;;;5.07;3.40;;;;;;;23.00;39.25;95262.63;4928242;28;20042;-64
2022/09/24 00:03:59;;;;;;;4.25;2.90;;;;;;;22.60;38.93;95201.81;4924207;28;20038;-65
2022/09/24 00:06:25;;;;;;;3.88;3.20;;;;;;;22.92;39.09;95256.16;4931179;28;20106;-65
2022/09/24 00:08:51;;;;;;;4.25;3.03;;;;;;;22.90;39.21;95247.75;4929157;28;20051;-68
2022/09/24 00:11:19;;;;;;;4.15;2.97;;;;;;;23.03;39.00;95256.16;4929165;28;20125;-69
2022/09/24 00:13:45;;;;;;;4.43;3.55;;;;;;;22.99;38.92;95261.13;4930349;28;20042;-67
2022/09/24 00:16:11;;;;;;;3.92;3.10;;;;;;;22.96;39.28;95255.94;4929392;28;20053;-65
2022/09/24 00:18:37;;;;;;;3.78;2.90;;;;;;;22.86;39.24;95243.06;4930263;28;20039;-66
2022/09/24 00:21:16;;;;;;;3.70;2.90;;;;;;;22.99;38.93;95255.69;4928994;28;20082;-66
2022/09/24 00:23:42;;;;;;;4.20;3.30;;;;;;;22.74;38.80;95223.31;4926937;28;20824;-66
2022/09/24 00:28:53;;;;;;;4.32;3.45;;;;;;;22.95;39.20;95244.28;4930958;28;20206;-67
2022/09/24 00:31:19;;;;;;;3.38;2.63;;;;;;;22.91;39.09;95249.25;4929840;28;20755;-65
2022/09/24 00:33:44;;;;;;;4.05;3.08;;;;;;;22.64;39.21;95202.28;4930452;28;20026;-65
2022/09/24 00:36:13;;;;;;;3.70;3.03;;;;;;;22.92;38.92;95256.16;4934507;28;20097;-70
2022/09/24 00:38:39;;;;;;;3.80;2.95;;;;;;;22.92;39.07;95256.16;4933388;28;20058;-70
2022/09/24 00:41:04;;;;;;;4.22;3.08;;;;;;;22.85;38.93;95244.31;4931039;28;20133;-63
2022/09/24 00:43:35;;;;;;;3.47;2.90;;;;;;;22.88;39.38;95254.19;4928018;28;20042;-64
2022/09/24 00:46:15;;;;;;;5.13;3.15;;;;;;;22.86;39.21;95245.81;4927412;28;20174;-64
2022/09/24 00:48:43;;;;;;;4.18;3.17;;;;;;;22.78;39.25;95239.38;4931500;28;21273;-62
2022/09/24 00:51:10;;;;;;;4.70;2.90;;;;;;;22.76;38.97;95230.97;4933716;28;20086;-66
2022/09/24 00:53:35;;;;;;;4.53;2.88;;;;;;;22.71;38.87;95218.13;4942811;28;20074;-68
2022/09/24 00:56:01;;;;;;;4.57;3.05;;;;;;;22.88;39.25;95252.97;4949441;28;20078;-67
2022/09/24 00:58:27;;;;;;;3.97;3.00;;;;;;;22.88;39.28;95239.34;4940342;28;20171;-67
2022/09/24 01:00:56;;;;;;;3.65;2.70;;;;;;;22.88;39.06;95232.41;4927522;28;20029;-68
2022/09/24 01:03:23;;;;;;;3.55;2.70;;;;;;;22.87;39.20;95230.94;4938036;28;20027;-69
2022/09/24 01:05:48;;;;;;;3.17;2.63;;;;;;;22.80;39.07;95228.75;4920400;28;20122;-64
2022/09/24 01:08:15;;;;;;;4.10;3.05;;;;;;;22.77;39.03;95232.47;4933380;28;20057;-69
2022/09/24 01:10:50;;;;;;;4.03;2.92;;;;;;;22.84;39.60;95240.84;4944177;28;20310;-68
2022/09/24 01:13:21;;;;;;;4.22;3.15;;;;;;;22.85;39.11;95234.16;4943756;28;20055;-64
2022/09/24 01:15:57;;;;;;;4.03;3.15;;;;;;;22.80;39.51;95234.19;4942695;28;20233;-62
2022/09/24 01:18:39;;;;;;;3.45;2.90;;;;;;;22.79;39.48;95235.41;4940177;28;21300;-62
2022/09/24 01:21:24;;;;;;;3.80;3.00;;;;;;;22.84;39.37;95237.38;4922726;28;20070;-68
2022/09/24 01:24:11;;;;;;;4.88;3.08;;;;;;;22.82;39.46;95229.69;4957561;28;20094;-70
2022/09/24 01:27:14;;;;;;;3.70;3.10;;;;;;;22.82;39.18;95239.88;4945254;28;20051;-69
2022/09/24 01:29:45;;;;;;;3.45;2.90;;;;;;;22.74;39.64;95244.34;4948229;28;20125;-67
2022/09/24 01:32:32;;;;;;;4.38;3.00;;;;;;;22.21;39.24;95149.47;4947045;28;20146;-65
2022/09/24 01:35:07;;;;;;;3.50;2.83;;;;;;;22.77;39.31;95221.56;4936899;28;20042;-70
2022/09/24 01:37:33;;;;;;;3.40;2.70;;;;;;;22.75;39.08;95221.31;4926170;28;20087;-66
2022/09/24 01:39:59;;;;;;;4.53;3.20;;;;;;;22.71;39.29;95218.13;4932553;28;20035;-70
2022/09/24 01:42:25;;;;;;;4.13;2.65;;;;;;;22.76;39.15;95228.25;4919701;28;20656;-68
2022/09/24 01:44:51;;;;;;;3.38;2.60;;;;;;;22.32;39.25;95165.03;4911562;28;20039;-67
2022/09/24 01:47:31;;;;;;;3.88;2.88;;;;;;;22.78;39.20;95234.69;4919563;28;20042;-70
2022/09/24 01:49:57;;;;;;;3.85;2.92;;;;;;;22.65;39.37;95218.13;4917068;28;20079;-66
2022/09/24 01:52:29;;;;;;;3.80;2.67;;;;;;;22.77;39.34;95248.78;4933868;28;20053;-65
2022/09/24 01:54:54;;;;;;;3.95;2.75;;;;;;;22.63;39.04;95217.13;4926375;28;20138;-67
2022/09/24 01:57:32;;;;;;;3.30;2.80;;;;;;;22.75;39.26;95240.38;4915356;28;20707;-66
2022/09/24 02:00:12;;;;;;;3.88;2.85;;;;;;;22.75;39.25;95234.94;4957155;28;20053;-63
2022/09/24 02:02:42;;;;;;;2.90;2.60;;;;;;;22.77;39.45;95243.34;4948426;28;20043;-66
2022/09/24 02:05:14;;;;;;;;;;;;;;;22.72;39.48;95253.00;4947196;28;20233;-63
2022/09/24 02:08:22;;;;;;;3.90;2.95;;;;;;;22.80;39.00;95251.25;4944994;28;19929;-63
2022/09/24 02:10:56;;;;;;;3.67;2.70;;;;;;;22.57;39.29;95230.78;4914646;28;20042;-69
2022/09/24 02:13:23;;;;;;;3.58;2.80;;;;;;;22.70;39.00;95249.31;4942724;28;20108;-68
2022/09/24 02:15:49;;;;;;;3.60;2.97;;;;;;;22.74;39.27;95249.78;4907657;28;20026;-67
2022/09/24 02:18:16;;;;;;;3.53;2.63;;;;;;;22.74;39.19;95261.41;4908924;28;21644;-66
2022/09/24 02:20:42;;;;;;;3.95;3.10;;;;;;;22.76;39.07;95258.19;4924332;28;20618;-64
2022/09/24 02:23:09;;;;;;;3.20;2.38;;;;;;;22.67;38.88;95255.75;4942868;28;20042;-66
2022/09/24 02:25:49;;;;;;;3.35;2.58;;;;;;;22.73;39.17;95275.53;4907401;28;20141;-70
2022/09/24 02:28:16;;;;;;;2.95;2.47;;;;;;;22.67;39.46;95266.63;4910450;28;20050;-65
2022/09/24 02:30:43;;;;;;;3.95;2.78;;;;;;;22.55;39.47;95248.84;4929314;28;20034;-69
2022/09/24 02:34:19;;;;;;;3.67;2.63;;;;;;;22.30;39.13;95214.50;4948060;28;20042;-64
2022/09/24 02:35:55;;;;;;;3.22;2.50;;;;;;;22.68;39.19;95270.84;4946248;28;20054;-65
2022/09/24 02:38:21;;;;;;;3.80;2.97;;;;;;;22.76;39.20;95285.41;4917153;28;20121;-64
2022/09/24 02:40:47;;;;;;;3.45;2.97;;;;;;;22.28;39.32;95225.13;4938353;28;20050;-70
2022/09/24 02:43:13;;;;;;;3.45;2.75;;;;;;;22.60;39.13;95256.25;4907247;28;20050;-67
2022/09/24 02:45:38;;;;;;;3.60;2.88;;;;;;;22.50;39.09;95244.16;4936709;28;20843;-63
2022/09/24 02:48:04;;;;;;;3.45;2.80;;;;;;;22.70;39.44;95282.69;4942724;28;20466;-66
2022/09/24 02:50:29;;;;;;;4.22;2.80;;;;;;;22.40;39.45;95248.38;4935132;28;20047;-68
2022/09/24 02:52:54;;;;;;;3.85;2.72;;;;;;;22.71;39.33;95284.19;4939112;28;20097;-68
2022/09/24 02:55:20;;;;;;;3.55;2.65;;;;;;;22.24;38.81;95223.91;4938873;28;20051;-68
2022/09/24 02:57:46;;;;;;;3.58;2.65;;;;;;;22.69;39.17;95292.13;4940250;28;20591;-66
2022/09/24 03:00:12;;;;;;;3.30;2.80;;;;;;;22.70;39.35;95287.41;4937898;28;20100;-65
2022/09/24 03:02:38;;;;;;;3.03;2.45;;;;;;;22.26;39.29;95222.16;4937821;28;20038;-63
2022/09/24 03:05:04;;;;;;;3.55;2.60;;;;;;;22.72;39.37;95296.56;4942151;28;20757;-63
2022/09/24 03:07:29;;;;;;;3.63;2.67;;;;;;;22.68;39.49;95293.34;4942401;28;20172;-62
2022/09/24 03:09:55;;;;;;;3.83;2.40;;;;;;;22.61;39.26;95268.63;4936555;28;20046;-64
2022/09/24 03:12:20;;;;;;;3.20;2.90;;;;;;;22.71;39.17;95291.63;4939907;28;20508;-63
2022/09/24 03:14:46;;;;;;;3.45;2.60;;;;;;;22.31;39.11;95234.28;4940094;28;20049;-63
2022/09/24 03:17:11;;;;;;;3.33;2.25;;;;;;;22.62;39.10;95286.44;4938605;28;20034;-65
2022/09/24 03:19:36;;;;;;;4.40;3.00;;;;;;;22.32;39.09;95236.50;4936373;28;20926;-63
2022/09/24 03:22:02;;;;;;;3.25;2.55;;;;;;;22.31;39.01;95235.00;4938254;28;20022;-69
2022/09/24 03:24:27;;;;;;;3.25;2.58;;;;;;;22.45;38.97;95253.03;4938605;28;20046;-69
2022/09/24 03:26:53;;;;;;;3.03;2.47;;;;;;;22.52;38.89;95266.16;4938291;28;20606;-64
2022/09/24 03:30:58;;;;;;;3.13;2.50;;;;;;;22.61;39.03;95287.69;4937750;28;20727;-62
2022/09/24 03:32:04;;;;;;;2.92;2.60;;;;;;;22.62;39.34;95286.44;4939776;28;20047;-63
2022/09/24 03:34:29;;;;;;;3.00;2.45;;;;;;;22.29;38.97;95237.50;4936428;28;21443;-61
2022/09/24 03:36:55;;;;;;;3.08;2.40;;;;;;;22.33;38.91;95259.00;4931722;28;20046;-63
2022/09/24 03:39:20;;;;;;;3.42;2.65;;;;;;;22.38;39.05;95277.31;4940238;28;20038;-66
2022/09/24 03:41:45;;;;;;;3.60;2.20;;;;;;;22.61;39.18;95295.84;4936308;28;21664;-67
2022/09/24 03:44:11;;;;;;;3.22;2.42;;;;;;;22.65;39.18;95301.78;4939742;28;21004;-68
2022/09/24 03:46:36;;;;;;;3.75;2.50;;;;;;;22.53;39.30;95294.88;4940853;28;21440;-64
2022/09/24 03:49:02;;;;;;;3.20;2.80;;;;;;;22.18;39.02;95248.38;4916376;28;21070;-65
2022/09/24 03:51:27;;;;;;;3.70;2.42;;;;;;;22.65;39.34;95310.69;4939199;28;20043;-63
2022/09/24 03:53:53;;;;;;;3.63;2.55;;;;;;;22.19;39.19;95244.41;4939871;28;20147;-69
2022/09/24 03:56:18;;;;;;;2.95;2.40;;;;;;;22.44;39.04;95276.81;4938120;28;20197;-64
2022/09/24 03:58:46;;;;;;;3.00;2.50;;;;;;;22.66;39.31;95314.13;4938254;28;20098;-65
2022/09/24 04:01:11;;;;;;;2.80;2.40;;;;;;;22.51;38.90;95298.09;4941006;28;21020;-65
2022/09/24 04:03:37;;;;;;;3.08;2.47;;;;;;;22.67;38.97;95315.63;4928607;28;20034;-67
2022/09/24 04:06:04;;;;;;;3.58;2.63;;;;;;;22.64;39.18;95317.34;4939969;28;20059;-65
2022/09/24 04:08:30;;;;;;;4.68;2.70;;;;;;;22.63;39.28;95320.56;4914486;28;20046;-66
2022/09/24 04:10:55;;;;;;;3.33;2.55;;;;;;;22.62;39.09;95316.38;4938850;28;20194;-63
2022/09/24 04:13:21;;;;;;;3.25;2.60;;;;;;;22.58;39.10;95313.16;4938333;28;21780;-69
2022/09/24 04:15:49;;;;;;;2.80;2.30;;;;;;;22.45;39.07;95288.41;4893609;28;21444;-67
2022/09/24 04:18:15;;;;;;;3.60;2.75;;;;;;;22.63;39.39;95320.56;4940013;28;20043;-67
2022/09/24 04:20:40;;;;;;;3.03;2.42;;;;;;;22.57;38.94;95328.00;4938331;28;20557;-69
2022/09/24 04:23:06;;;;;;;3.40;2.40;;;;;;;22.20;39.05;95256.78;4937100;28;20039;-67
2022/09/24 04:25:31;;;;;;;4.18;2.75;;;;;;;22.27;38.96;95272.63;4940088;28;21391;-64
2022/09/24 04:28:01;;;;;;;3.10;2.63;;;;;;;22.30;39.23;95287.97;4912451;28;20037;-63
2022/09/24 04:30:27;;;;;;;3.75;2.80;;;;;;;22.59;39.19;95336.44;4940785;28;20604;-67
2022/09/24 04:32:53;;;;;;;3.33;2.45;;;;;;;22.58;39.04;95329.50;4913778;28;20046;-64
2022/09/24 04:35:21;;;;;;;3.72;2.60;;;;;;;22.55;38.96;95341.38;4937899;28;20046;-70
2022/09/24 04:37:47;;;;;;;3.95;2.85;;;;;;;22.59;39.09;95341.88;4914695;28;20153;-66
2022/09/24 04:40:13;;;;;;;2.90;2.42;;;;;;;22.62;39.05;95341.63;4918342;28;21665;-66
2022/09/24 04:42:39;;;;;;;3.17;2.30;;;;;;;22.61;38.77;95344.84;4941895;28;20831;-65
2022/09/24 04:45:07;;;;;;;3.60;2.70;;;;;;;22.45;39.06;95321.06;4940269;28;20165;-67
2022/09/24 04:47:33;;;;;;;3.72;2.58;;;;;;;22.62;39.06;95338.16;4940387;28;20251;-68
2022/09/24 04:50:00;;;;;;;3.28;2.67;;;;;;;22.31;39.06;95300.31;4942528;28;20499;-67
2022/09/24 04:52:28;;;;;;;3.60;2.80;;;;;;;22.29;39.11;95291.91;4944421;28;20100;-67
2022/09/24 04:54:56;;;;;;;3.70;2.88;;;;;;;22.53;39.11;95322.09;4939069;28;20037;-66
2022/09/24 04:57:22;;;;;;;3.35;2.55;;;;;;;22.39;39.28;95328.53;4940102;28;20035;-66
2022/09/24 04:59:48;;;;;;;3.40;2.58;;;;;;;22.45;39.19;95326.53;4941188;28;20035;-71
2022/09/24 05:02:13;;;;;;;3.58;2.50;;;;;;;22.53;39.12;95327.53;4943976;28;20074;-69
2022/09/24 05:04:38;;;;;;;3.53;2.65;;;;;;;22.43;39.07;95301.78;4942294;28;20476;-68
2022/09/24 05:07:04;;;;;;;3.28;2.50;;;;;;;22.62;39.47;95347.06;4943574;28;20808;-63
2022/09/24 05:09:33;;;;;;;3.83;2.55;;;;;;;22.43;39.03;95312.69;4944951;28;20038;-62
2022/09/24 05:11:58;;;;;;;3.65;2.60;;;;;;;22.63;39.23;95342.34;4943406;28;20050;-65
2022/09/24 05:14:24;;;;;;;3.10;2.60;;;;;;;22.61;39.41;95350.28;4940413;28;20993;-63
2022/09/24 05:16:49;;;;;;;3.97;2.75;;;;;;;22.53;39.42;95344.59;4938604;28;20781;-67
2022/09/24 05:19:15;;;;;;;3.65;2.60;;;;;;;22.52;39.28;95336.91;4939228;28;20145;-64
2022/09/24 05:21:40;;;;;;;3.40;2.50;;;;;;;22.59;39.24;95347.31;4919469;28;20061;-67
2022/09/24 05:24:06;;;;;;;3.90;2.70;;;;;;;22.54;39.45;95339.88;4942014;28;21848;-68
2022/09/24 05:29:15;;;;;;;3.08;2.60;;;;;;;22.71;39.30;95356.97;4937977;28;20135;-67
2022/09/24 05:31:41;;;;;;;3.17;2.30;;;;;;;22.52;39.44;95309.69;4938743;28;20046;-65
2022/09/24 05:34:06;;;;;;;3.67;2.78;;;;;;;22.86;39.29;95360.16;4936568;28;20042;-64
2022/09/24 05:36:32;;;;;;;3.15;2.50;;;;;;;22.76;39.17;95318.81;4938437;28;20054;-66
2022/09/24 05:38:57;;;;;;;3.38;2.60;;;;;;;23.01;38.82;95345.06;4943983;28;20078;-68
2022/09/24 05:41:23;;;;;;;3.42;2.35;;;;;;;23.14;39.20;95356.91;4944887;28;20031;-64
2022/09/24 05:43:48;;;;;;;3.10;2.45;;;;;;;23.21;38.61;95358.38;4947852;28;21713;-65
2022/09/24 05:46:14;;;;;;;3.10;2.33;;;;;;;23.31;38.59;95368.50;4944044;28;20091;-67
2022/09/24 05:48:39;;;;;;;3.67;2.42;;;;;;;22.94;38.59;95318.31;4946001;28;20140;-65
2022/09/24 05:51:05;;;;;;;3.72;2.60;;;;;;;23.49;38.87;95362.50;4946390;28;20050;-65
2022/09/24 05:53:31;;;;;;;3.75;2.80;;;;;;;23.63;38.56;95366.91;4944324;28;20050;-64
2022/09/24 05:55:57;;;;;;;3.85;2.80;;;;;;;23.33;38.57;95306.06;4944967;28;20051;-67
2022/09/24 05:58:23;;;;;;;4.32;2.63;;;;;;;23.59;38.20;95336.44;4939960;28;20055;-63
2022/09/24 06:00:49;;;;;;;3.63;2.70;;;;;;;23.84;38.32;95368.06;4944476;28;20133;-68
2022/09/24 06:03:15;;;;;;;4.00;2.45;;;;;;;23.96;37.85;95368.28;4944072;28;20324;-66
2022/09/24 06:05:48;;;;;;;5.07;2.90;;;;;;;23.96;37.42;95351.13;4919927;28;20046;-67
2022/09/24 06:08:14;;;;;;;4.07;2.70;;;;;;;23.99;37.63;95342.72;4941798;28;20053;-66
2022/09/24 06:10:41;;;;;;;4.30;2.67;;;;;;;24.25;37.42;95370.31;4941901;28;20046;-65
2022/09/24 06:13:07;;;;;;;5.22;2.80;;;;;;;23.73;37.12;95294.50;4941625;28;20566;-67
2022/09/24 06:15:34;;;;;;;3.20;2.67;;;;;;;24.12;36.66;95337.41;4939933;28;20043;-68
2022/09/24 06:18:00;;;;;;;4.10;2.90;;;;;;;24.43;36.68;95383.38;4941927;28;20046;-67
2022/09/24 06:20:25;;;;;;;4.70;2.40;;;;;;;24.37;36.52;95379.94;4942968;28;20838;-69
2022/09/24 06:22:54;;;;;;;4.70;2.90;;;;;;;24.38;36.69;95375.97;4934591;28;20046;-67
2022/09/24 06:25:19;;;;;;;3.35;2.50;;;;;;;24.47;36.47;95362.00;4941268;28;20058;-69
2022/09/24 06:27:45;;;;;;;3.55;2.75;;;;;;;24.44;36.40;95346.66;4939854;28;20526;-63
2022/09/24 06:30:10;;;;;;;3.33;2.55;;;;;;;24.46;36.43;95331.22;4900308;28;20139;-62
2022/09/24 06:32:36;;;;;;;3.15;2.60;;;;;;;24.75;36.07;95376.19;4942865;28;20046;-66
2022/09/24 06:35:02;;;;;;;2.95;2.47;;;;;;;24.58;36.17;95345.53;4944274;28;20925;-64
2022/09/24 06:37:27;;;;;;;4.88;2.72;;;;;;;24.66;35.74;95360.13;4944238;28;20066;-66
2022/09/24 06:39:53;;;;;;;4.15;2.70;;;;;;;24.91;35.54;95378.75;4942907;28;20031;-64
2022/09/24 06:42:18;;;;;;;5.43;2.75;;;;;;;24.93;35.36;95373.53;4941396;28;20117;-67
2022/09/24 06:44:44;;;;;;;4.38;2.80;;;;;;;24.99;35.53;95385.94;4942194;28;20522;-65
2022/09/24 06:47:11;;;;;;;3.38;2.50;;;;;;;24.90;35.35;95367.09;4937260;28;20105;-67
2022/09/24 06:49:37;;;;;;;4.22;2.65;;;;;;;24.79;35.53;95343.88;4931018;28;20543;-65
2022/09/24 06:52:03;;;;;;;4.45;2.97;;;;;;;25.05;35.00;95378.44;4927757;28;20566;-63
2022/09/24 06:54:28;;;;;;;4.35;2.75;;;;;;;24.74;35.27;95337.22;4930419;28;20073;-68
2022/09/24 06:56:54;;;;;;;5.13;3.10;;;;;;;25.03;35.38;95375.44;4930413;28;20070;-66
2022/09/24 06:59:19;;;;;;;3.97;3.00;;;;;;;25.12;35.08;95383.31;4925521;28;21248;-68
2022/09/24 07:01:45;;;;;;;5.00;3.88;;;;;;;24.64;33.07;95381.75;4928523;28;21413;-71
2022/09/24 07:04:10;;;;;;;4.18;2.83;;;;;;;24.86;35.24;95374.84;4929868;28;20054;-71
2022/09/24 07:09:20;;;;;;;3.88;2.72;;;;;;;25.25;34.51;95386.16;4923799;28;20153;-68
2022/09/24 07:11:46;;;;;;;4.38;2.83;;;;;;;25.28;34.67;95387.88;4939809;28;20050;-69
2022/09/24 07:14:12;;;;;;;4.10;2.90;;;;;;;25.01;34.63;95350.63;4934801;28;20086;-66
2022/09/24 07:16:38;;;;;;;4.28;2.95;;;;;;;25.34;34.69;95388.56;4924994;28;20637;-65
2022/09/24 07:19:03;;;;;;;4.88;3.20;;;;;;;25.00;34.51;95349.13;4927454;28;20756;-68
2022/09/24 07:21:29;;;;;;;4.07;2.97;;;;;;;25.06;34.69;95343.63;4918207;28;20779;-68
2022/09/24 07:23:54;;;;;;;3.67;2.88;;;;;;;25.46;34.14;95377.00;4917105;28;20110;-69
2022/09/24 07:26:20;;;;;;;4.47;3.00;;;;;;;25.44;34.39;95381.47;4918549;28;20099;-71
2022/09/24 07:28:45;;;;;;;5.05;3.20;;;;;;;25.37;35.37;95371.13;4922670;28;20176;-68
2022/09/24 07:31:11;;;;;;;4.90;3.03;;;;;;;25.50;35.33;95387.63;4931614;28;20046;-67
2022/09/24 07:33:36;;;;;;;5.88;3.15;;;;;;;25.40;35.07;95364.63;4932061;28;20125;-66
2022/09/24 07:36:08;;;;;;;4.95;2.78;;;;;;;25.30;34.64;95340.91;4928290;28;20069;-67
2022/09/24 07:38:35;;;;;;;4.55;2.80;;;;;;;25.62;34.89;95375.31;4919866;28;20039;-68
2022/09/24 07:41:02;;;;;;;4.05;3.05;;;;;;;25.49;35.69;95377.97;4907596;28;20132;-68
2022/09/24 07:43:28;;;;;;;5.57;2.90;;;;;;;25.44;35.22;95356.88;4897995;28;20054;-68
2022/09/24 07:45:54;;;;;;;5.03;3.45;;;;;;;25.54;34.83;95352.53;4881958;28;20040;-72
2022/09/24 07:48:20;;;;;;;4.47;2.70;;;;;;;25.52;35.42;95371.47;4905045;29;20375;-68
2022/09/24 07:50:46;;;;;;;5.80;3.08;;;;;;;25.45;35.21;95355.63;4913861;28;20055;-73
2022/09/24 07:53:11;;;;;;;3.67;2.80;;;;;;;25.33;35.14;95311.28;4883088;28;20496;-68
2022/09/24 07:55:39;;;;;;;4.57;2.92;;;;;;;26.08;34.48;95376.47;4904871;28;20082;-69
2022/09/24 07:58:06;;;;;;;4.95;3.00;;;;;;;27.02;32.60;95360.88;4892141;28;21813;-70
2022/09/24 08:00:32;;;;;;;5.13;2.92;;;;;;;26.57;33.31;95358.63;4888248;29;20039;-69
2022/09/24 08:03:20;;;;;;;5.80;3.90;;;;;;;26.03;30.71;95366.34;4921417;28;20135;-73
2022/09/24 08:05:46;;;;;;;4.40;3.50;;;;;;;25.85;32.21;95366.34;4869559;28;20130;-65
2022/09/24 08:08:12;;;;;;;5.55;3.30;;;;;;;26.09;32.94;95364.28;4909807;28;20761;-64
2022/09/24 08:10:38;;;;;;;4.10;2.75;;;;;;;26.62;32.72;95371.50;4910767;28;20039;-68
2022/09/24 08:13:03;;;;;;;4.18;2.95;;;;;;;26.86;32.10;95353.66;4915364;28;20039;-64
2022/09/24 08:15:29;;;;;;;3.90;2.75;;;;;;;26.23;33.39;95368.56;4920712;28;20042;-63
2022/09/24 08:18:02;;;;;;;3.65;2.47;;;;;;;25.86;33.67;95332.28;4921792;28;21787;-66
2022/09/24 08:20:28;;;;;;;4.70;3.10;;;;;;;26.01;34.08;95368.16;4930867;28;20202;-71
2022/09/24 08:22:59;;;;;;;4.30;2.90;;;;;;;25.77;33.99;95337.34;4928185;28;20058;-64
2022/09/24 08:25:25;;;;;;;3.95;3.10;;;;;;;26.04;34.01;95373.31;4915644;28;20078;-65
2022/09/24 08:27:51;;;;;;;4.78;2.80;;;;;;;25.80;33.76;95348.03;4920382;28;21592;-63
2022/09/24 08:30:17;;;;;;;6.63;2.83;;;;;;;25.60;34.55;95361.41;4915793;29;20092;-68
2022/09/24 08:32:48;;;;;;;4.22;2.83;;;;;;;25.45;34.12;95339.22;4917154;28;21730;-62
2022/09/24 08:35:17;;;;;;;3.25;2.50;;;;;;;25.99;34.07;95363.19;4915311;28;20050;-64
2022/09/24 08:37:43;;;;;;;3.50;2.33;;;;;;;25.87;33.92;95342.69;4943266;28;20145;-66
2022/09/24 08:40:16;;;;;;;5.18;2.60;;;;;;;25.59;34.03;95338.03;4953131;28;20112;-62
2022/09/24 08:42:49;;;;;;;3.83;3.10;;;;;;;25.70;34.54;95351.63;4918373;28;20030;-63
2022/09/24 08:48:06;;;;;;;4.88;2.95;;;;;;;25.66;34.35;95353.91;4958499;28;20049;-67
2022/09/24 08:50:33;;;;;;;5.40;2.58;;;;;;;25.73;34.13;95315.03;4935939;28;20161;-66
2022/09/24 08:53:05;;;;;;;4.30;2.80;;;;;;;25.78;33.91;95334.09;4935840;28;20527;-68
2022/09/24 08:55:42;;;;;;;3.92;2.53;;;;;;;25.68;33.54;95302.16;4938375;28;20108;-68
2022/09/24 08:58:35;;;;;;;3.42;2.97;;;;;;;26.04;33.35;95345.94;4954323;28;20035;-68
2022/09/24 09:01:03;;;;;;;5.63;2.88;;;;;;;26.16;33.12;95341.78;4970319;28;21082;-69
2022/09/24 09:03:38;;;;;;;5.10;2.80;;;;;;;26.08;32.56;95340.16;4969285;28;20057;-65
2022/09/24 09:06:15;;;;;;;6.10;3.55;;;;;;;26.08;32.53;95340.91;4966479;28;20061;-64
2022/09/24 09:08:52;;;;;;;4.18;2.80;;;;;;;26.22;32.03;95331.50;4952275;28;20054;-67
2022/09/24 09:11:20;;;;;;;4.32;3.03;;;;;;;25.76;32.68;95286.66;4969936;28;20124;-69
2022/09/24 09:13:52;;;;;;;5.15;3.25;;;;;;;26.13;32.42;95337.34;4966515;28;20111;-65
2022/09/24 09:16:22;;;;;;;4.43;3.25;;;;;;;26.17;32.41;95326.81;4966744;28;20050;-64
2022/09/24 09:18:48;;;;;;;4.38;3.03;;;;;;;26.16;32.27;95336.31;4966367;28;20089;-67
2022/09/24 09:21:22;;;;;;;5.20;2.90;;;;;;;26.19;32.31;95334.53;4964066;28;20046;-64
2022/09/24 09:23:49;;;;;;;7.47;4.88;;;;;;;27.18;27.94;95276.84;4964640;28;20061;-63
2022/09/24 09:26:17;;;;;;;5.25;4.70;;;;;;;28.15;26.72;95320.72;4944698;28;20050;-68
2022/09/24 09:28:42;;;;;;;8.38;4.82;;;;;;;26.14;28.96;95300.50;4962180;28;20070;-67
2022/09/24 09:31:49;;;;;;;10.57;7.40;;;;;;;26.70;28.96;95312.09;4943191;28;20426;-64
2022/09/24 09:34:17;;;;;;;24.50;17.38;;;;;;;26.28;28.52;95310.28;4962419;28;20074;-65
2022/09/24 09:36:52;;;;;;;44.55;32.30;;;;;;;26.04;28.76;95318.56;4963634;28;20172;-62
2022/09/24 09:39:23;;;;;;;41.85;30.55;;;;;;;26.35;28.19;95309.66;4963595;28;20047;-65
2022/09/24 09:41:54;;;;;;;25.15;17.27;;;;;;;26.76;27.47;95295.03;4963784;28;20039;-67
2022/09/24 09:44:25;;;;;;;25.75;16.90;;;;;;;26.89;27.21;95297.81;4962635;28;21445;-66
2022/09/24 09:47:05;;;;;;;21.20;14.40;;;;;;;27.10;26.80;95295.94;4943430;28;20049;-61
2022/09/24 09:49:33;;;;;;;19.58;14.27;;;;;;;26.71;27.94;95275.94;4963158;28;20054;-63
2022/09/24 09:51:59;;;;;;;18.30;11.70;;;;;;;25.72;28.62;95280.72;4943894;28;20101;-69
2022/09/24 09:54:36;;;;;;;17.38;11.85;;;;;;;26.09;28.72;95271.22;4944585;28;20186;-62
2022/09/24 09:57:01;;;;;;;10.65;8.95;;;;;;;26.78;27.99;95270.56;4940560;28;21976;-62
2022/09/24 09:59:26;;;;;;;10.63;7.38;;;;;;;26.53;28.40;95271.28;4940712;28;20050;-61
2022/09/24 10:01:55;;;;;;;12.70;8.32;;;;;;;26.75;27.78;95237.28;4941356;28;20073;-61
2022/09/24 10:04:35;;;;;;;12.18;7.50;;;;;;;26.93;28.00;95265.34;4943413;28;20041;-66
2022/09/24 10:07:04;;;;;;;10.27;6.00;;;;;;;25.57;28.38;95274.94;4938113;28;20921;-63
2022/09/24 10:09:30;;;;;;;7.43;6.15;;;;;;;26.09;27.72;95268.47;4961807;28;20046;-64
2022/09/24 10:12:08;;;;;;;7.63;5.43;;;;;;;25.82;27.65;95219.63;4961985;28;20601;-62
2022/09/24 10:14:34;;;;;;;9.90;5.57;;;;;;;26.77;27.26;95247.19;4942787;28;20046;-62
2022/09/24 10:17:04;;;;;;;11.40;5.53;;;;;;;27.06;26.20;95207.03;4934947;28;20173;-64
2022/09/24 10:19:31;;;;;;;8.13;4.95;;;;;;;26.17;27.62;95227.53;4922104;28;20060;-65
2022/09/24 10:21:56;;;;;;;6.28;4.82;;;;;;;26.05;27.16;95221.53;4911023;28;20031;-66
2022/09/24 10:24:25;;;;;;;6.60;4.20;;;;;;;26.51;26.38;95199.09;4931187;28;20041;-62
2022/09/24 10:26:51;;;;;;;6.25;3.85;;;;;;;26.53;26.04;95221.22;4926241;28;20144;-63
2022/09/24 10:32:19;;;;;;;4.47;2.90;;;;;;;26.74;25.25;95235.78;4945053;28;20073;-61
2022/09/24 10:34:58;;;;;;;7.88;4.32;;;;;;;26.46;24.93;95243.78;4928085;28;20184;-63
2022/09/24 10:37:24;;;;;;;41.20;22.50;;;;;;;26.38;25.19;95237.41;4954861;28;20046;-63
2022/09/24 10:40:14;;;;;;;9.18;6.25;;;;;;;26.36;25.04;95207.09;4945523;28;20033;-66
2022/09/24 10:42:39;;;;;;;7.28;4.30;;;;;;;26.97;24.30;95230.13;4930162;28;20161;-62
2022/09/24 10:45:06;;;;;;;8.35;4.45;;;;;;;26.35;24.67;95172.72;4946186;28;20669;-62
2022/09/24 10:47:37;;;;;;;6.05;3.53;;;;;;;27.43;23.40;95221.22;4934123;28;20081;-66
2022/09/24 10:50:24;;;;;;;6.18;3.58;;;;;;;26.42;24.87;95227.63;4953064;28;20084;-68
2022/09/24 10:52:53;;;;;;;6.57;3.75;;;;;;;25.96;25.61;95180.09;4930667;28;20047;-66
2022/09/24 10:55:41;;;;;;;5.60;3.60;;;;;;;24.97;27.94;95235.38;4936454;28;20137;-64
2022/09/24 10:58:24;;;;;;;6.00;3.70;;;;;;;25.51;27.49;95208.63;4931664;28;20715;-64
2022/09/24 11:01:07;;;;;;;5.53;3.50;;;;;;;25.46;27.02;95248.47;4946800;28;20034;-65
2022/09/24 11:03:56;;;;;;;4.65;3.10;;;;;;;24.81;27.56;95237.56;4944227;28;20297;-64
2022/09/24 11:06:21;;;;;;;4.68;3.45;;;;;;;24.68;27.92;95235.47;4942180;28;20791;-64
2022/09/24 11:09:05;;;;;;;4.88;2.85;;;;;;;25.77;27.03;95244.34;4955560;28;20042;-64
2022/09/24 11:11:46;;;;;;;4.35;2.70;;;;;;;26.17;26.79;95222.06;4959688;28;20050;-63
2022/09/24 11:14:25;;;;;;;2.80;2.10;;;;;;;25.21;26.94;95201.84;4943854;28;21657;-67
2022/09/24 11:17:16;;;;;;;2.83;2.30;;;;;;;25.26;27.14;95185.38;4942691;28;20557;-61
2022/09/24 11:20:02;;;;;;;3.25;2.00;;;;;;;25.36;26.52;95227.47;4960009;28;21371;-62
2022/09/24 11:22:34;;;;;;;2.80;1.80;;;;;;;24.72;26.38;95180.53;4961500;28;20113;-62
2022/09/24 11:25:28;;;;;;;2.45;1.88;;;;;;;25.51;25.81;95216.81;4961176;28;20037;-62
2022/09/24 11:28:02;;;;;;;4.45;2.00;;;;;;;25.14;26.50;95210.59;4960373;28;21657;-67
2022/09/24 11:30:46;;;;;;;3.45;1.98;;;;;;;25.22;26.37;95195.13;4962159;28;20712;-62
2022/09/24 11:33:33;;;;;;;2.42;1.85;;;;;;;24.97;25.85;95205.31;4944400;28;21664;-65
2022/09/24 11:36:17;;;;;;;1.73;1.40;;;;;;;24.84;26.14;95202.50;4961061;28;20042;-69
2022/09/24 11:38:48;;;;;;;3.42;1.80;;;;;;;25.00;25.66;95196.13;4961255;28;20050;-66
2022/09/24 11:41:39;;;;;;;2.00;1.80;;;;;;;24.85;26.43;95195.03;4961512;28;20049;-65
2022/09/24 11:44:26;;;;;;;2.80;1.90;;;;;;;25.24;26.33;95187.88;4960741;28;20042;-65
2022/09/24 11:46:58;;;;;;;2.25;1.80;;;;;;;24.72;26.82;95191.47;4966378;28;20073;-63
2022/09/24 11:49:42;;;;;;;3.35;1.80;;;;;;;24.97;26.74;95190.94;4967640;28;20115;-62
2022/09/24 11:52:11;;;;;;;3.22;1.85;;;;;;;24.90;27.00;95184.06;4968952;28;20251;-65
2022/09/24 11:54:39;;;;;;;2.53;1.83;;;;;;;24.57;27.22;95194.63;4953711;28;20034;-65
2022/09/24 11:57:12;;;;;;;2.85;1.95;;;;;;;24.43;26.66;95143.88;4967983;28;20233;-63